sensor_id;sensor_type;location;lat;lon;timestamp;P1;durP1;ratioP1;P2;durP2;ratioP2
15716;SDS011;7960;50.908;4.204;2023-02-01T00:01:14;22.27;;;10.00;;
15716;SDS011;7960;50.908;4.204;2023-02-01T00:03:41;18.93;;;9.40;;
15716;SDS011;7960;50.908;4.204;2023-02-01T00:06:08;24.03;;;9.10;;
15716;SDS011;7960;50.908;4.204;2023-02-01T00:08:35;20.43;;;9.20;;
15716;SDS011;7960;50.908;4.204;2023-02-01T00:11:03;18.57;;;9.33;;
15716;SDS011;7960;50.908;4.204;2023-02-01T00:13:32;21.23;;;8.90;;
15716;SDS011;7960;50.908;4.204;2023-02-01T00:16:03;21.87;;;8.30;;
15716;SDS011;7960;50.908;4.204;2023-02-01T00:18:31;19.43;;;7.83;;
15716;SDS011;7960;50.908;4.204;2023-02-01T00:20:58;27.10;;;8.00;;
15716;SDS011;7960;50.908;4.204;2023-02-01T00:23:25;21.77;;;7.33;;
15716;SDS011;7960;50.908;4.204;2023-02-01T00:25:52;23.20;;;7.37;;
15716;SDS011;7960;50.908;4.204;2023-02-01T00:28:18;20.30;;;7.27;;
15716;SDS011;7960;50.908;4.204;2023-02-01T00:30:47;16.83;;;6.60;;
15716;SDS011;7960;50.908;4.204;2023-02-01T00:33:22;14.73;;;5.40;;
15716;SDS011;7960;50.908;4.204;2023-02-01T00:35:49;14.10;;;5.47;;
15716;SDS011;7960;50.908;4.204;2023-02-01T00:38:16;13.90;;;4.77;;
15716;SDS011;7960;50.908;4.204;2023-02-01T00:40:43;15.60;;;5.00;;
15716;SDS011;7960;50.908;4.204;2023-02-01T00:43:10;13.53;;;4.67;;
15716;SDS011;7960;50.908;4.204;2023-02-01T00:45:37;16.57;;;4.70;;
15716;SDS011;7960;50.908;4.204;2023-02-01T00:48:05;16.97;;;5.10;;
15716;SDS011;7960;50.908;4.204;2023-02-01T00:50:32;15.70;;;4.97;;
15716;SDS011;7960;50.908;4.204;2023-02-01T00:52:59;13.57;;;4.03;;
15716;SDS011;7960;50.908;4.204;2023-02-01T00:55:26;12.97;;;4.57;;
15716;SDS011;7960;50.908;4.204;2023-02-01T00:57:53;16.97;;;4.13;;
15716;SDS011;7960;50.908;4.204;2023-02-01T01:00:19;9.10;;;3.70;;
15716;SDS011;7960;50.908;4.204;2023-02-01T01:02:46;13.77;;;4.13;;
15716;SDS011;7960;50.908;4.204;2023-02-01T01:05:14;13.17;;;4.33;;
15716;SDS011;7960;50.908;4.204;2023-02-01T01:07:41;14.93;;;3.93;;
15716;SDS011;7960;50.908;4.204;2023-02-01T01:10:08;14.40;;;4.80;;
15716;SDS011;7960;50.908;4.204;2023-02-01T01:12:36;22.27;;;4.80;;
15716;SDS011;7960;50.908;4.204;2023-02-01T01:15:03;17.33;;;5.03;;
15716;SDS011;7960;50.908;4.204;2023-02-01T01:17:31;15.80;;;5.60;;
15716;SDS011;7960;50.908;4.204;2023-02-01T01:19:58;18.77;;;5.30;;
15716;SDS011;7960;50.908;4.204;2023-02-01T01:22:26;12.43;;;4.90;;
15716;SDS011;7960;50.908;4.204;2023-02-01T01:24:52;16.00;;;4.30;;
15716;SDS011;7960;50.908;4.204;2023-02-01T01:27:19;18.30;;;5.70;;
15716;SDS011;7960;50.908;4.204;2023-02-01T01:29:49;16.87;;;5.77;;
15716;SDS011;7960;50.908;4.204;2023-02-01T01:32:15;17.07;;;4.70;;
15716;SDS011;7960;50.908;4.204;2023-02-01T01:34:42;14.43;;;4.53;;
15716;SDS011;7960;50.908;4.204;2023-02-01T01:37:09;11.53;;;4.37;;
15716;SDS011;7960;50.908;4.204;2023-02-01T01:39:37;15.07;;;5.37;;
15716;SDS011;7960;50.908;4.204;2023-02-01T01:42:04;18.37;;;4.47;;
15716;SDS011;7960;50.908;4.204;2023-02-01T01:47:30;19.40;;;4.83;;
15716;SDS011;7960;50.908;4.204;2023-02-01T01:50:03;16.77;;;4.40;;
15716;SDS011;7960;50.908;4.204;2023-02-01T01:52:32;15.00;;;4.77;;
15716;SDS011;7960;50.908;4.204;2023-02-01T01:55:01;13.20;;;4.80;;
15716;SDS011;7960;50.908;4.204;2023-02-01T01:57:31;15.87;;;4.43;;
15716;SDS011;7960;50.908;4.204;2023-02-01T02:00:03;17.20;;;4.33;;
15716;SDS011;7960;50.908;4.204;2023-02-01T02:02:33;14.40;;;4.57;;
15716;SDS011;7960;50.908;4.204;2023-02-01T02:05:02;14.83;;;4.10;;
15716;SDS011;7960;50.908;4.204;2023-02-01T02:07:30;19.33;;;4.80;;
15716;SDS011;7960;50.908;4.204;2023-02-01T02:10:02;16.87;;;4.50;;
15716;SDS011;7960;50.908;4.204;2023-02-01T02:12:30;14.33;;;5.40;;
15716;SDS011;7960;50.908;4.204;2023-02-01T02:14:58;10.67;;;4.07;;
15716;SDS011;7960;50.908;4.204;2023-02-01T02:17:28;18.37;;;4.67;;
15716;SDS011;7960;50.908;4.204;2023-02-01T02:20:16;14.60;;;4.20;;
15716;SDS011;7960;50.908;4.204;2023-02-01T02:23:18;17.60;;;5.17;;
15716;SDS011;7960;50.908;4.204;2023-02-01T02:26:06;14.20;;;3.93;;
15716;SDS011;7960;50.908;4.204;2023-02-01T02:28:57;14.27;;;5.03;;
15716;SDS011;7960;50.908;4.204;2023-02-01T02:31:54;22.13;;;4.63;;
15716;SDS011;7960;50.908;4.204;2023-02-01T02:34:36;16.43;;;4.50;;
15716;SDS011;7960;50.908;4.204;2023-02-01T02:37:09;17.13;;;4.87;;
15716;SDS011;7960;50.908;4.204;2023-02-01T02:39:44;17.53;;;4.30;;
15716;SDS011;7960;50.908;4.204;2023-02-01T02:42:17;11.43;;;3.93;;
15716;SDS011;7960;50.908;4.204;2023-02-01T02:45:10;10.93;;;4.07;;
15716;SDS011;7960;50.908;4.204;2023-02-01T02:48:17;17.30;;;4.27;;
15716;SDS011;7960;50.908;4.204;2023-02-01T02:50:50;18.03;;;4.33;;
15716;SDS011;7960;50.908;4.204;2023-02-01T02:53:43;13.57;;;3.77;;
15716;SDS011;7960;50.908;4.204;2023-02-01T02:56:34;18.13;;;4.20;;
15716;SDS011;7960;50.908;4.204;2023-02-01T02:59:21;14.53;;;3.70;;
15716;SDS011;7960;50.908;4.204;2023-02-01T03:02:08;7.47;;;3.30;;
15716;SDS011;7960;50.908;4.204;2023-02-01T03:04:53;18.53;;;3.90;;
15716;SDS011;7960;50.908;4.204;2023-02-01T03:10:30;12.83;;;4.23;;
15716;SDS011;7960;50.908;4.204;2023-02-01T03:13:03;10.90;;;4.00;;
15716;SDS011;7960;50.908;4.204;2023-02-01T03:15:34;18.00;;;4.47;;
15716;SDS011;7960;50.908;4.204;2023-02-01T03:18:04;18.73;;;4.63;;
15716;SDS011;7960;50.908;4.204;2023-02-01T03:20:37;12.57;;;3.67;;
15716;SDS011;7960;50.908;4.204;2023-02-01T03:23:09;12.17;;;3.97;;
15716;SDS011;7960;50.908;4.204;2023-02-01T03:25:39;10.10;;;4.10;;
15716;SDS011;7960;50.908;4.204;2023-02-01T03:28:07;16.87;;;4.00;;
15716;SDS011;7960;50.908;4.204;2023-02-01T03:30:37;14.97;;;3.80;;
15716;SDS011;7960;50.908;4.204;2023-02-01T03:33:07;15.70;;;4.70;;
15716;SDS011;7960;50.908;4.204;2023-02-01T03:35:39;13.50;;;4.20;;
15716;SDS011;7960;50.908;4.204;2023-02-01T03:38:14;14.53;;;4.30;;
15716;SDS011;7960;50.908;4.204;2023-02-01T03:40:48;15.17;;;3.80;;
15716;SDS011;7960;50.908;4.204;2023-02-01T03:43:20;13.27;;;3.33;;
15716;SDS011;7960;50.908;4.204;2023-02-01T03:45:49;17.57;;;4.47;;
15716;SDS011;7960;50.908;4.204;2023-02-01T03:48:19;14.20;;;3.90;;
15716;SDS011;7960;50.908;4.204;2023-02-01T03:50:48;8.90;;;3.30;;
15716;SDS011;7960;50.908;4.204;2023-02-01T03:53:19;12.30;;;4.27;;
15716;SDS011;7960;50.908;4.204;2023-02-01T03:55:48;13.50;;;4.43;;
15716;SDS011;7960;50.908;4.204;2023-02-01T03:58:18;10.80;;;3.30;;
15716;SDS011;7960;50.908;4.204;2023-02-01T04:00:50;12.47;;;4.50;;
15716;SDS011;7960;50.908;4.204;2023-02-01T04:03:17;13.50;;;4.27;;
15716;SDS011;7960;50.908;4.204;2023-02-01T04:05:44;15.90;;;4.43;;
15716;SDS011;7960;50.908;4.204;2023-02-01T04:08:11;15.30;;;4.03;;
15716;SDS011;7960;50.908;4.204;2023-02-01T04:10:39;9.47;;;4.33;;
15716;SDS011;7960;50.908;4.204;2023-02-01T04:13:06;13.50;;;3.53;;
15716;SDS011;7960;50.908;4.204;2023-02-01T04:15:33;12.67;;;3.93;;
15716;SDS011;7960;50.908;4.204;2023-02-01T04:18:00;14.73;;;4.13;;
15716;SDS011;7960;50.908;4.204;2023-02-01T04:20:27;15.17;;;3.30;;
15716;SDS011;7960;50.908;4.204;2023-02-01T04:22:54;12.17;;;4.43;;
15716;SDS011;7960;50.908;4.204;2023-02-01T04:25:21;18.13;;;4.17;;
15716;SDS011;7960;50.908;4.204;2023-02-01T04:27:49;9.60;;;3.47;;
15716;SDS011;7960;50.908;4.204;2023-02-01T04:30:16;12.07;;;3.47;;
15716;SDS011;7960;50.908;4.204;2023-02-01T04:32:43;13.83;;;4.27;;
15716;SDS011;7960;50.908;4.204;2023-02-01T04:35:10;12.43;;;3.20;;
15716;SDS011;7960;50.908;4.204;2023-02-01T04:37:37;18.40;;;4.13;;
15716;SDS011;7960;50.908;4.204;2023-02-01T04:40:04;11.80;;;4.20;;
15716;SDS011;7960;50.908;4.204;2023-02-01T04:42:32;14.10;;;3.73;;
15716;SDS011;7960;50.908;4.204;2023-02-01T04:45:00;17.13;;;4.27;;
15716;SDS011;7960;50.908;4.204;2023-02-01T04:47:27;13.90;;;3.70;;
15716;SDS011;7960;50.908;4.204;2023-02-01T04:49:53;13.80;;;3.80;;
15716;SDS011;7960;50.908;4.204;2023-02-01T04:52:20;10.90;;;3.83;;
15716;SDS011;7960;50.908;4.204;2023-02-01T04:54:47;15.23;;;4.60;;
15716;SDS011;7960;50.908;4.204;2023-02-01T04:57:14;13.57;;;3.37;;
15716;SDS011;7960;50.908;4.204;2023-02-01T04:59:41;15.23;;;4.43;;
15716;SDS011;7960;50.908;4.204;2023-02-01T05:02:09;18.33;;;4.20;;
15716;SDS011;7960;50.908;4.204;2023-02-01T05:04:36;15.90;;;4.40;;
15716;SDS011;7960;50.908;4.204;2023-02-01T05:07:02;13.63;;;4.30;;
15716;SDS011;7960;50.908;4.204;2023-02-01T05:09:29;17.00;;;3.93;;
15716;SDS011;7960;50.908;4.204;2023-02-01T05:11:56;18.87;;;4.20;;
15716;SDS011;7960;50.908;4.204;2023-02-01T05:14:40;13.37;;;3.50;;
15716;SDS011;7960;50.908;4.204;2023-02-01T05:17:08;21.57;;;4.17;;
15716;SDS011;7960;50.908;4.204;2023-02-01T05:19:35;20.67;;;4.10;;
15716;SDS011;7960;50.908;4.204;2023-02-01T05:22:02;18.07;;;4.77;;
15716;SDS011;7960;50.908;4.204;2023-02-01T05:24:29;14.23;;;3.80;;
15716;SDS011;7960;50.908;4.204;2023-02-01T05:26:56;18.37;;;3.60;;
15716;SDS011;7960;50.908;4.204;2023-02-01T05:29:22;8.43;;;3.17;;
15716;SDS011;7960;50.908;4.204;2023-02-01T05:31:49;11.63;;;3.20;;
15716;SDS011;7960;50.908;4.204;2023-02-01T05:34:17;14.03;;;3.70;;
15716;SDS011;7960;50.908;4.204;2023-02-01T05:36:44;18.77;;;3.60;;
15716;SDS011;7960;50.908;4.204;2023-02-01T05:39:11;21.80;;;3.67;;
15716;SDS011;7960;50.908;4.204;2023-02-01T05:41:38;11.43;;;3.13;;
15716;SDS011;7960;50.908;4.204;2023-02-01T05:44:05;12.80;;;3.67;;
15716;SDS011;7960;50.908;4.204;2023-02-01T05:46:33;14.20;;;3.83;;
15716;SDS011;7960;50.908;4.204;2023-02-01T05:49:00;13.53;;;3.80;;
15716;SDS011;7960;50.908;4.204;2023-02-01T05:51:28;11.03;;;3.67;;
15716;SDS011;7960;50.908;4.204;2023-02-01T05:53:55;15.77;;;3.70;;
15716;SDS011;7960;50.908;4.204;2023-02-01T05:56:21;12.43;;;2.83;;
15716;SDS011;7960;50.908;4.204;2023-02-01T05:58:48;18.30;;;4.30;;
15716;SDS011;7960;50.908;4.204;2023-02-01T06:01:15;16.17;;;4.00;;
15716;SDS011;7960;50.908;4.204;2023-02-01T06:03:42;12.47;;;3.70;;
15716;SDS011;7960;50.908;4.204;2023-02-01T06:06:09;16.93;;;4.10;;
15716;SDS011;7960;50.908;4.204;2023-02-01T06:08:37;12.53;;;3.17;;
15716;SDS011;7960;50.908;4.204;2023-02-01T06:11:05;14.17;;;3.33;;
15716;SDS011;7960;50.908;4.204;2023-02-01T06:13:32;10.43;;;3.67;;
15716;SDS011;7960;50.908;4.204;2023-02-01T06:15:59;19.50;;;4.20;;
15716;SDS011;7960;50.908;4.204;2023-02-01T06:18:27;13.13;;;3.37;;
15716;SDS011;7960;50.908;4.204;2023-02-01T06:20:54;20.87;;;3.87;;
15716;SDS011;7960;50.908;4.204;2023-02-01T06:23:22;14.30;;;3.63;;
15716;SDS011;7960;50.908;4.204;2023-02-01T06:25:51;19.73;;;4.07;;
15716;SDS011;7960;50.908;4.204;2023-02-01T06:28:24;16.00;;;3.70;;
15716;SDS011;7960;50.908;4.204;2023-02-01T06:30:51;14.30;;;3.90;;
15716;SDS011;7960;50.908;4.204;2023-02-01T06:33:18;11.83;;;3.93;;
15716;SDS011;7960;50.908;4.204;2023-02-01T06:35:45;17.27;;;3.47;;
15716;SDS011;7960;50.908;4.204;2023-02-01T06:38:13;11.53;;;3.63;;
15716;SDS011;7960;50.908;4.204;2023-02-01T06:40:40;16.70;;;3.87;;
15716;SDS011;7960;50.908;4.204;2023-02-01T06:43:08;19.43;;;3.63;;
15716;SDS011;7960;50.908;4.204;2023-02-01T06:45:35;13.60;;;3.13;;
15716;SDS011;7960;50.908;4.204;2023-02-01T06:48:02;13.80;;;4.10;;
15716;SDS011;7960;50.908;4.204;2023-02-01T06:50:29;9.50;;;2.83;;
15716;SDS011;7960;50.908;4.204;2023-02-01T06:52:56;9.50;;;3.30;;
15716;SDS011;7960;50.908;4.204;2023-02-01T06:55:22;11.53;;;4.07;;
15716;SDS011;7960;50.908;4.204;2023-02-01T06:57:52;14.13;;;4.03;;
15716;SDS011;7960;50.908;4.204;2023-02-01T07:00:21;16.20;;;3.87;;
15716;SDS011;7960;50.908;4.204;2023-02-01T07:02:49;17.40;;;4.00;;
15716;SDS011;7960;50.908;4.204;2023-02-01T07:05:17;15.80;;;4.50;;
15716;SDS011;7960;50.908;4.204;2023-02-01T07:07:43;14.00;;;3.70;;
15716;SDS011;7960;50.908;4.204;2023-02-01T07:10:10;22.90;;;4.60;;
15716;SDS011;7960;50.908;4.204;2023-02-01T07:12:38;16.77;;;4.00;;
15716;SDS011;7960;50.908;4.204;2023-02-01T07:15:05;14.73;;;4.00;;
15716;SDS011;7960;50.908;4.204;2023-02-01T07:17:34;13.40;;;3.90;;
15716;SDS011;7960;50.908;4.204;2023-02-01T07:20:01;20.70;;;3.83;;
15716;SDS011;7960;50.908;4.204;2023-02-01T07:22:28;12.50;;;2.87;;
15716;SDS011;7960;50.908;4.204;2023-02-01T07:24:55;11.67;;;3.03;;
15716;SDS011;7960;50.908;4.204;2023-02-01T07:27:22;17.13;;;3.37;;
15716;SDS011;7960;50.908;4.204;2023-02-01T07:29:50;17.47;;;3.83;;
15716;SDS011;7960;50.908;4.204;2023-02-01T07:32:17;18.10;;;3.90;;
15716;SDS011;7960;50.908;4.204;2023-02-01T07:34:45;18.37;;;4.13;;
15716;SDS011;7960;50.908;4.204;2023-02-01T07:37:12;19.60;;;4.73;;
15716;SDS011;7960;50.908;4.204;2023-02-01T07:39:38;14.33;;;4.50;;
15716;SDS011;7960;50.908;4.204;2023-02-01T07:42:05;17.57;;;4.77;;
15716;SDS011;7960;50.908;4.204;2023-02-01T07:44:32;16.27;;;4.43;;
15716;SDS011;7960;50.908;4.204;2023-02-01T07:46:59;14.77;;;3.60;;
15716;SDS011;7960;50.908;4.204;2023-02-01T07:49:26;16.33;;;3.47;;
15716;SDS011;7960;50.908;4.204;2023-02-01T07:51:54;13.90;;;3.67;;
15716;SDS011;7960;50.908;4.204;2023-02-01T07:54:21;8.40;;;2.83;;
15716;SDS011;7960;50.908;4.204;2023-02-01T07:56:48;20.70;;;4.30;;
15716;SDS011;7960;50.908;4.204;2023-02-01T07:59:14;22.77;;;5.40;;
15716;SDS011;7960;50.908;4.204;2023-02-01T08:01:41;13.60;;;4.00;;
15716;SDS011;7960;50.908;4.204;2023-02-01T08:04:09;17.10;;;4.23;;
15716;SDS011;7960;50.908;4.204;2023-02-01T08:06:37;15.97;;;4.07;;
15716;SDS011;7960;50.908;4.204;2023-02-01T08:09:07;11.83;;;4.70;;
15716;SDS011;7960;50.908;4.204;2023-02-01T08:11:35;9.50;;;3.50;;
15716;SDS011;7960;50.908;4.204;2023-02-01T08:14:03;15.10;;;3.93;;
15716;SDS011;7960;50.908;4.204;2023-02-01T08:16:31;20.93;;;4.43;;
15716;SDS011;7960;50.908;4.204;2023-02-01T08:19:00;19.73;;;4.70;;
15716;SDS011;7960;50.908;4.204;2023-02-01T08:21:27;15.00;;;4.10;;
15716;SDS011;7960;50.908;4.204;2023-02-01T08:24:01;18.00;;;3.90;;
15716;SDS011;7960;50.908;4.204;2023-02-01T08:26:30;16.30;;;4.67;;
15716;SDS011;7960;50.908;4.204;2023-02-01T08:28:58;13.87;;;4.33;;
15716;SDS011;7960;50.908;4.204;2023-02-01T08:31:28;13.27;;;3.50;;
15716;SDS011;7960;50.908;4.204;2023-02-01T08:33:56;15.67;;;4.23;;
15716;SDS011;7960;50.908;4.204;2023-02-01T08:36:25;13.77;;;4.57;;
15716;SDS011;7960;50.908;4.204;2023-02-01T08:38:53;12.40;;;3.83;;
15716;SDS011;7960;50.908;4.204;2023-02-01T08:41:20;14.37;;;4.07;;
15716;SDS011;7960;50.908;4.204;2023-02-01T08:43:50;15.37;;;4.20;;
15716;SDS011;7960;50.908;4.204;2023-02-01T08:46:17;21.33;;;3.80;;
15716;SDS011;7960;50.908;4.204;2023-02-01T08:48:45;16.87;;;4.33;;
15716;SDS011;7960;50.908;4.204;2023-02-01T08:51:13;18.87;;;4.60;;
15716;SDS011;7960;50.908;4.204;2023-02-01T08:53:41;11.77;;;3.67;;
15716;SDS011;7960;50.908;4.204;2023-02-01T08:56:07;11.30;;;3.50;;
15716;SDS011;7960;50.908;4.204;2023-02-01T08:58:35;13.70;;;4.00;;
15716;SDS011;7960;50.908;4.204;2023-02-01T09:01:04;15.20;;;3.97;;
15716;SDS011;7960;50.908;4.204;2023-02-01T09:03:32;19.77;;;4.53;;
15716;SDS011;7960;50.908;4.204;2023-02-01T09:06:00;20.27;;;4.57;;
15716;SDS011;7960;50.908;4.204;2023-02-01T09:08:27;19.30;;;5.37;;
15716;SDS011;7960;50.908;4.204;2023-02-01T09:10:58;16.80;;;3.73;;
15716;SDS011;7960;50.908;4.204;2023-02-01T09:13:25;17.27;;;4.73;;
15716;SDS011;7960;50.908;4.204;2023-02-01T09:15:52;11.70;;;4.63;;
15716;SDS011;7960;50.908;4.204;2023-02-01T09:18:20;12.83;;;3.57;;
15716;SDS011;7960;50.908;4.204;2023-02-01T09:20:47;16.80;;;3.90;;
15716;SDS011;7960;50.908;4.204;2023-02-01T09:23:14;16.43;;;4.70;;
15716;SDS011;7960;50.908;4.204;2023-02-01T09:25:41;14.30;;;3.90;;
15716;SDS011;7960;50.908;4.204;2023-02-01T09:28:07;11.73;;;3.50;;
15716;SDS011;7960;50.908;4.204;2023-02-01T09:30:34;13.57;;;4.57;;
15716;SDS011;7960;50.908;4.204;2023-02-01T09:33:01;14.13;;;2.93;;
15716;SDS011;7960;50.908;4.204;2023-02-01T09:35:30;10.50;;;3.63;;
15716;SDS011;7960;50.908;4.204;2023-02-01T09:37:57;9.17;;;2.97;;
15716;SDS011;7960;50.908;4.204;2023-02-01T09:40:24;12.93;;;3.77;;
15716;SDS011;7960;50.908;4.204;2023-02-01T09:42:56;14.53;;;3.93;;
15716;SDS011;7960;50.908;4.204;2023-02-01T09:45:37;12.90;;;4.13;;
15716;SDS011;7960;50.908;4.204;2023-02-01T09:48:14;11.73;;;4.00;;
15716;SDS011;7960;50.908;4.204;2023-02-01T09:50:48;15.30;;;3.97;;
15716;SDS011;7960;50.908;4.204;2023-02-01T09:53:20;11.60;;;3.50;;
15716;SDS011;7960;50.908;4.204;2023-02-01T09:55:51;14.03;;;3.63;;
15716;SDS011;7960;50.908;4.204;2023-02-01T09:58:22;14.53;;;3.50;;
15716;SDS011;7960;50.908;4.204;2023-02-01T10:00:53;15.77;;;3.30;;
15716;SDS011;7960;50.908;4.204;2023-02-01T10:03:22;18.00;;;3.80;;
15716;SDS011;7960;50.908;4.204;2023-02-01T10:05:59;15.07;;;3.53;;
15716;SDS011;7960;50.908;4.204;2023-02-01T10:08:36;9.30;;;3.10;;
15716;SDS011;7960;50.908;4.204;2023-02-01T10:11:20;14.97;;;3.67;;
15716;SDS011;7960;50.908;4.204;2023-02-01T10:13:54;9.57;;;3.50;;
15716;SDS011;7960;50.908;4.204;2023-02-01T10:16:34;10.77;;;4.17;;
15716;SDS011;7960;50.908;4.204;2023-02-01T10:19:16;14.30;;;3.43;;
15716;SDS011;7960;50.908;4.204;2023-02-01T10:21:56;12.53;;;3.30;;
15716;SDS011;7960;50.908;4.204;2023-02-01T10:24:40;16.53;;;4.63;;
15716;SDS011;7960;50.908;4.204;2023-02-01T10:27:11;11.07;;;3.30;;
15716;SDS011;7960;50.908;4.204;2023-02-01T10:29:41;7.87;;;3.57;;
15716;SDS011;7960;50.908;4.204;2023-02-01T10:32:12;11.53;;;3.30;;
15716;SDS011;7960;50.908;4.204;2023-02-01T10:34:40;11.80;;;3.10;;
15716;SDS011;7960;50.908;4.204;2023-02-01T10:37:13;15.40;;;4.57;;
15716;SDS011;7960;50.908;4.204;2023-02-01T10:39:48;10.20;;;3.57;;
15716;SDS011;7960;50.908;4.204;2023-02-01T10:42:18;9.20;;;3.07;;
15716;SDS011;7960;50.908;4.204;2023-02-01T10:44:47;14.57;;;3.87;;
15716;SDS011;7960;50.908;4.204;2023-02-01T10:47:15;14.20;;;3.70;;
15716;SDS011;7960;50.908;4.204;2023-02-01T10:49:43;11.37;;;3.37;;
15716;SDS011;7960;50.908;4.204;2023-02-01T10:52:19;14.60;;;4.00;;
15716;SDS011;7960;50.908;4.204;2023-02-01T10:54:50;9.70;;;3.23;;
15716;SDS011;7960;50.908;4.204;2023-02-01T10:57:22;12.13;;;3.37;;
15716;SDS011;7960;50.908;4.204;2023-02-01T10:59:51;14.33;;;2.97;;
15716;SDS011;7960;50.908;4.204;2023-02-01T11:02:20;12.20;;;3.37;;
15716;SDS011;7960;50.908;4.204;2023-02-01T11:04:58;12.17;;;4.10;;
15716;SDS011;7960;50.908;4.204;2023-02-01T11:07:28;10.97;;;3.47;;
15716;SDS011;7960;50.908;4.204;2023-02-01T11:09:56;13.40;;;3.83;;
15716;SDS011;7960;50.908;4.204;2023-02-01T11:12:25;13.87;;;3.60;;
15716;SDS011;7960;50.908;4.204;2023-02-01T11:14:59;11.43;;;3.20;;
15716;SDS011;7960;50.908;4.204;2023-02-01T11:17:39;8.20;;;2.87;;
15716;SDS011;7960;50.908;4.204;2023-02-01T11:20:12;18.13;;;3.67;;
15716;SDS011;7960;50.908;4.204;2023-02-01T11:22:46;10.90;;;3.43;;
15716;SDS011;7960;50.908;4.204;2023-02-01T11:25:14;9.07;;;3.00;;
15716;SDS011;7960;50.908;4.204;2023-02-01T11:27:43;9.00;;;3.30;;
15716;SDS011;7960;50.908;4.204;2023-02-01T11:30:13;8.33;;;3.50;;
15716;SDS011;7960;50.908;4.204;2023-02-01T11:32:43;7.93;;;2.30;;
15716;SDS011;7960;50.908;4.204;2023-02-01T11:35:13;9.50;;;2.87;;
15716;SDS011;7960;50.908;4.204;2023-02-01T11:37:44;11.30;;;2.87;;
15716;SDS011;7960;50.908;4.204;2023-02-01T11:40:25;10.40;;;2.67;;
15716;SDS011;7960;50.908;4.204;2023-02-01T11:42:54;20.83;;;4.00;;
15716;SDS011;7960;50.908;4.204;2023-02-01T11:45:24;12.93;;;3.37;;
15716;SDS011;7960;50.908;4.204;2023-02-01T11:47:53;10.83;;;3.37;;
15716;SDS011;7960;50.908;4.204;2023-02-01T11:50:24;15.53;;;3.73;;
15716;SDS011;7960;50.908;4.204;2023-02-01T11:53:00;8.87;;;2.40;;
15716;SDS011;7960;50.908;4.204;2023-02-01T11:55:46;8.67;;;2.73;;
15716;SDS011;7960;50.908;4.204;2023-02-01T12:01:26;11.27;;;3.63;;
15716;SDS011;7960;50.908;4.204;2023-02-01T12:07:11;9.60;;;3.10;;
15716;SDS011;7960;50.908;4.204;2023-02-01T12:09:49;21.30;;;3.47;;
15716;SDS011;7960;50.908;4.204;2023-02-01T12:12:31;3.40;;;2.00;;
15716;SDS011;7960;50.908;4.204;2023-02-01T12:15:09;6.63;;;1.97;;
15716;SDS011;7960;50.908;4.204;2023-02-01T12:17:51;10.93;;;2.40;;
15716;SDS011;7960;50.908;4.204;2023-02-01T12:20:37;10.50;;;2.30;;
15716;SDS011;7960;50.908;4.204;2023-02-01T12:23:21;10.93;;;2.40;;
15716;SDS011;7960;50.908;4.204;2023-02-01T12:26:05;12.27;;;3.17;;
15716;SDS011;7960;50.908;4.204;2023-02-01T12:28:56;14.53;;;2.40;;
15716;SDS011;7960;50.908;4.204;2023-02-01T12:31:48;10.67;;;2.50;;
15716;SDS011;7960;50.908;4.204;2023-02-01T12:34:29;7.17;;;2.20;;
15716;SDS011;7960;50.908;4.204;2023-02-01T12:37:17;6.87;;;2.40;;
15716;SDS011;7960;50.908;4.204;2023-02-01T12:39:53;22.50;;;3.73;;
15716;SDS011;7960;50.908;4.204;2023-02-01T12:42:27;16.30;;;3.87;;
15716;SDS011;7960;50.908;4.204;2023-02-01T12:44:59;8.23;;;2.30;;
15716;SDS011;7960;50.908;4.204;2023-02-01T12:47:36;8.57;;;2.60;;
15716;SDS011;7960;50.908;4.204;2023-02-01T12:50:12;14.30;;;2.47;;
15716;SDS011;7960;50.908;4.204;2023-02-01T12:52:48;7.90;;;2.00;;
15716;SDS011;7960;50.908;4.204;2023-02-01T12:55:17;9.17;;;3.30;;
15716;SDS011;7960;50.908;4.204;2023-02-01T12:57:49;7.43;;;2.30;;
15716;SDS011;7960;50.908;4.204;2023-02-01T13:00:22;10.07;;;3.03;;
15716;SDS011;7960;50.908;4.204;2023-02-01T13:02:54;11.63;;;2.60;;
15716;SDS011;7960;50.908;4.204;2023-02-01T13:05:31;11.87;;;2.40;;
15716;SDS011;7960;50.908;4.204;2023-02-01T13:08:07;4.80;;;1.80;;
15716;SDS011;7960;50.908;4.204;2023-02-01T13:10:37;11.93;;;3.43;;
15716;SDS011;7960;50.908;4.204;2023-02-01T13:13:10;9.97;;;2.70;;
15716;SDS011;7960;50.908;4.204;2023-02-01T13:15:46;15.60;;;2.50;;
15716;SDS011;7960;50.908;4.204;2023-02-01T13:18:16;13.77;;;3.60;;
15716;SDS011;7960;50.908;4.204;2023-02-01T13:20:47;11.20;;;3.30;;
15716;SDS011;7960;50.908;4.204;2023-02-01T13:23:22;16.13;;;3.83;;
15716;SDS011;7960;50.908;4.204;2023-02-01T13:25:53;7.20;;;2.07;;
15716;SDS011;7960;50.908;4.204;2023-02-01T13:28:25;10.73;;;2.87;;
15716;SDS011;7960;50.908;4.204;2023-02-01T13:31:06;9.50;;;2.43;;
15716;SDS011;7960;50.908;4.204;2023-02-01T13:33:48;5.57;;;2.27;;
15716;SDS011;7960;50.908;4.204;2023-02-01T13:36:38;9.87;;;2.73;;
15716;SDS011;7960;50.908;4.204;2023-02-01T13:39:19;9.63;;;3.07;;
15716;SDS011;7960;50.908;4.204;2023-02-01T13:42:00;12.40;;;2.20;;
15716;SDS011;7960;50.908;4.204;2023-02-01T13:44:29;10.40;;;2.03;;
15716;SDS011;7960;50.908;4.204;2023-02-01T13:47:00;11.73;;;2.77;;
15716;SDS011;7960;50.908;4.204;2023-02-01T13:49:30;15.77;;;2.43;;
15716;SDS011;7960;50.908;4.204;2023-02-01T13:52:02;9.93;;;2.50;;
15716;SDS011;7960;50.908;4.204;2023-02-01T13:54:30;6.00;;;2.40;;
15716;SDS011;7960;50.908;4.204;2023-02-01T13:56:59;9.97;;;2.20;;
15716;SDS011;7960;50.908;4.204;2023-02-01T13:59:36;8.13;;;2.30;;
15716;SDS011;7960;50.908;4.204;2023-02-01T14:08:24;8.53;;;2.50;;
15716;SDS011;7960;50.908;4.204;2023-02-01T14:11:06;10.53;;;2.43;;
15716;SDS011;7960;50.908;4.204;2023-02-01T14:23:12;8.97;;;2.37;;
15716;SDS011;7960;50.908;4.204;2023-02-01T14:26:03;13.93;;;3.20;;
15716;SDS011;7960;50.908;4.204;2023-02-01T14:28:46;10.67;;;3.00;;
15716;SDS011;7960;50.908;4.204;2023-02-01T14:31:54;10.80;;;2.93;;
15716;SDS011;7960;50.908;4.204;2023-02-01T14:34:38;14.93;;;2.70;;
15716;SDS011;7960;50.908;4.204;2023-02-01T14:37:23;12.37;;;3.00;;
15716;SDS011;7960;50.908;4.204;2023-02-01T14:39:54;8.17;;;2.60;;
15716;SDS011;7960;50.908;4.204;2023-02-01T14:42:28;4.57;;;2.10;;
15716;SDS011;7960;50.908;4.204;2023-02-01T14:51:01;11.57;;;3.37;;
15716;SDS011;7960;50.908;4.204;2023-02-01T14:53:30;12.80;;;3.07;;
15716;SDS011;7960;50.908;4.204;2023-02-01T14:56:04;13.27;;;2.90;;
15716;SDS011;7960;50.908;4.204;2023-02-01T14:58:35;9.80;;;2.73;;
15716;SDS011;7960;50.908;4.204;2023-02-01T15:01:14;13.03;;;3.47;;
15716;SDS011;7960;50.908;4.204;2023-02-01T15:03:46;13.33;;;2.70;;
15716;SDS011;7960;50.908;4.204;2023-02-01T15:06:27;11.70;;;2.90;;
15716;SDS011;7960;50.908;4.204;2023-02-01T15:08:58;7.93;;;2.50;;
15716;SDS011;7960;50.908;4.204;2023-02-01T15:11:31;11.87;;;2.63;;
15716;SDS011;7960;50.908;4.204;2023-02-01T15:13:57;17.63;;;2.90;;
15716;SDS011;7960;50.908;4.204;2023-02-01T15:16:25;8.37;;;2.90;;
15716;SDS011;7960;50.908;4.204;2023-02-01T15:19:09;10.77;;;2.67;;
15716;SDS011;7960;50.908;4.204;2023-02-01T15:21:45;17.73;;;2.67;;
15716;SDS011;7960;50.908;4.204;2023-02-01T15:24:17;12.47;;;3.50;;
15716;SDS011;7960;50.908;4.204;2023-02-01T15:26:46;14.30;;;3.00;;
15716;SDS011;7960;50.908;4.204;2023-02-01T15:29:13;11.23;;;2.60;;
15716;SDS011;7960;50.908;4.204;2023-02-01T15:31:42;10.10;;;3.07;;
15716;SDS011;7960;50.908;4.204;2023-02-01T15:34:10;14.57;;;3.27;;
15716;SDS011;7960;50.908;4.204;2023-02-01T15:39:14;12.83;;;3.33;;
15716;SDS011;7960;50.908;4.204;2023-02-01T15:41:49;10.60;;;2.63;;
15716;SDS011;7960;50.908;4.204;2023-02-01T15:44:18;6.63;;;2.80;;
15716;SDS011;7960;50.908;4.204;2023-02-01T15:46:55;10.20;;;3.10;;
15716;SDS011;7960;50.908;4.204;2023-02-01T15:49:24;12.27;;;2.40;;
15716;SDS011;7960;50.908;4.204;2023-02-01T15:51:53;6.33;;;2.70;;